Time;durP1;ratioP1;P1;durP2;ratioP2;P2;SDS_P1;SDS_P2;PMS_P1;PMS_P2;Temp;Humidity;BMP_temperature;BMP_pressure;BME280_temperature;BME280_humidity;BME280_pressure;Samples;Min_cycle;Max_cycle;Signal;HPM_P1;HPM_P2
2022/10/27 00:00:57;;;;;;;7.03;6.63;;;12.20;1.00;;;;;;6386003;27;20397;-54
2022/10/27 00:04:00;;;;;;;8.30;7.70;;;12.10;1.00;;;;;;6386739;27;20239;-53
2022/10/27 00:07:04;;;;;;;9.03;8.23;;;12.10;1.00;;;;;;6388988;27;20315;-54
2022/10/27 00:10:08;;;;;;;9.13;8.30;;;12.10;1.00;;;;;;6386408;27;20227;-53
2022/10/27 00:13:11;;;;;;;9.07;8.43;;;12.00;1.00;;;;;;6388052;27;20557;-54
2022/10/27 00:16:15;;;;;;;8.47;7.93;;;12.00;1.00;;;;;;6387646;27;20481;-59
2022/10/27 00:19:19;;;;;;;8.77;8.23;;;12.00;1.00;;;;;;6370971;27;20246;-53
2022/10/27 00:22:23;;;;;;;9.00;8.40;;;12.00;1.00;;;;;;6360984;27;20238;-53
2022/10/27 00:25:30;;;;;;;10.67;9.43;;;12.00;1.00;;;;;;6361764;27;20238;-53
2022/10/27 00:28:33;;;;;;;10.30;9.30;;;11.90;1.00;;;;;;6361307;27;20231;-53
2022/10/27 00:31:36;;;;;;;9.93;8.90;;;12.00;1.00;;;;;;6362459;27;20262;-53
2022/10/27 00:34:39;;;;;;;9.13;8.47;;;12.00;1.00;;;;;;6383070;27;20231;-54
2022/10/27 00:37:43;;;;;;;8.97;8.27;;;12.00;1.00;;;;;;6371919;27;20227;-55
2022/10/27 00:40:46;;;;;;;8.50;7.70;;;12.00;1.00;;;;;;6387670;27;20229;-57
2022/10/27 00:43:49;;;;;;;7.67;7.27;;;11.90;1.00;;;;;;6385775;27;20739;-54
2022/10/27 00:46:51;;;;;;;8.07;7.57;;;12.00;1.00;;;;;;6386267;27;20265;-59
2022/10/27 00:50:00;;;;;;;7.33;6.93;;;11.90;1.00;;;;;;6387013;27;20234;-53
2022/10/27 00:53:04;;;;;;;7.70;7.10;;;11.90;1.00;;;;;;6384944;27;20245;-53
2022/10/27 00:56:07;;;;;;;8.60;7.90;;;11.90;1.00;;;;;;6361564;28;20230;-54
2022/10/27 00:59:10;;;;;;;9.60;8.80;;;11.90;1.00;;;;;;6375624;27;20230;-53
2022/10/27 01:02:14;;;;;;;7.40;6.90;;;11.90;1.00;;;;;;6361300;28;20227;-53
2022/10/27 01:05:19;;;;;;;8.53;7.77;;;11.80;1.00;;;;;;6361245;28;20611;-56
2022/10/27 01:08:23;;;;;;;7.80;7.13;;;11.80;1.00;;;;;;6375163;27;20972;-54
2022/10/27 01:11:27;;;;;;;10.00;8.97;;;11.80;1.00;;;;;;6386263;27;20231;-53
2022/10/27 01:14:30;;;;;;;9.63;8.43;;;11.80;1.00;;;;;;6386999;27;20238;-53
2022/10/27 01:17:40;;;;;;;8.57;7.97;;;11.80;1.00;;;;;;6385949;27;20483;-53
2022/10/27 01:21:20;;;;;;;7.97;7.47;;;11.80;1.00;;;;;;6386484;27;20230;-57
2022/10/27 01:24:54;;;;;;;8.03;7.43;;;11.80;1.00;;;;;;6386073;27;20226;-54
2022/10/27 01:28:29;;;;;;;8.33;7.70;;;11.80;1.00;;;;;;6384668;27;20701;-55
2022/10/27 01:31:41;;;;;;;7.67;7.17;;;11.80;1.00;;;;;;6379878;27;20603;-53
2022/10/27 01:34:54;;;;;;;7.80;7.40;;;11.80;1.00;;;;;;6385195;27;20392;-53
2022/10/27 01:38:06;;;;;;;7.90;7.23;;;11.80;1.00;;;;;;6378670;27;20234;-55
2022/10/27 01:41:15;;;;;;;8.77;8.00;;;11.80;1.00;;;;;;6384792;27;20223;-57
2022/10/27 01:44:24;;;;;;;10.53;9.40;;;11.80;1.00;;;;;;6385684;27;20242;-52
2022/10/27 01:47:31;;;;;;;9.30;8.50;;;11.80;1.00;;;;;;6359785;28;20227;-53
2022/10/27 01:50:41;;;;;;;7.83;7.20;;;11.80;1.00;;;;;;6360568;28;20228;-54
2022/10/27 01:54:04;;;;;;;6.97;6.57;;;11.70;1.00;;;;;;6366469;27;20230;-52
2022/10/27 01:57:20;;;;;;;7.53;7.03;;;11.70;1.00;;;;;;6390976;27;20689;-54
2022/10/27 02:00:22;;;;;;;9.47;8.67;;;11.70;1.00;;;;;;6380051;27;20230;-55
2022/10/27 02:03:34;;;;;;;8.23;7.63;;;11.70;1.00;;;;;;6366981;27;20714;-52
2022/10/27 02:06:44;;;;;;;8.17;7.47;;;11.70;1.00;;;;;;6365995;27;20591;-54
2022/10/27 02:09:51;;;;;;;8.37;7.90;;;11.70;1.00;;;;;;6390277;27;20724;-54
2022/10/27 02:12:56;;;;;;;7.37;6.87;;;11.70;1.00;;;;;;6387868;27;20234;-53
2022/10/27 02:16:03;;;;;;;8.83;8.13;;;11.60;1.00;;;;;;6390439;27;20310;-54
2022/10/27 02:19:13;;;;;;;7.63;7.07;;;11.70;1.00;;;;;;6389606;27;20245;-52
2022/10/27 02:22:16;;;;;;;7.17;6.77;;;11.60;1.00;;;;;;6386502;27;20257;-53
2022/10/27 02:25:21;;;;;;;7.53;7.03;;;11.60;1.00;;;;;;6364440;27;20242;-54
2022/10/27 02:28:34;;;;;;;7.67;7.17;;;11.60;1.00;;;;;;6363892;27;20642;-53
2022/10/27 02:31:40;;;;;;;7.77;7.17;;;11.50;1.00;;;;;;6363868;27;20944;-53
2022/10/27 02:34:47;;;;;;;6.90;6.60;;;11.50;1.00;;;;;;6363649;27;20228;-54
2022/10/27 02:37:50;;;;;;;7.87;7.37;;;11.50;1.00;;;;;;6374913;27;20618;-54
2022/10/27 02:40:53;;;;;;;7.83;7.30;;;11.50;1.00;;;;;;6388197;27;20317;-54
2022/10/27 02:43:56;;;;;;;7.37;6.97;;;11.50;1.00;;;;;;6389147;27;20243;-53
2022/10/27 02:46:58;;;;;;;8.30;7.70;;;11.50;1.00;;;;;;6379618;27;20236;-53
2022/10/27 02:50:06;;;;;;;8.33;7.73;;;11.50;1.00;;;;;;6363506;27;20242;-53
2022/10/27 02:53:08;;;;;;;8.03;7.43;;;11.50;1.00;;;;;;6378141;27;20320;-54
2022/10/27 02:56:12;;;;;;;7.73;7.17;;;11.50;1.00;;;;;;6380690;27;20223;-54
2022/10/27 02:59:14;;;;;;;7.80;7.17;;;11.40;1.00;;;;;;6360361;27;20246;-53
2022/10/27 03:02:17;;;;;;;7.03;6.63;;;11.40;1.00;;;;;;6362238;27;20231;-54
2022/10/27 03:05:22;;;;;;;7.27;6.87;;;11.40;1.00;;;;;;6360785;27;20227;-54
2022/10/27 03:08:25;;;;;;;7.00;6.60;;;11.40;1.00;;;;;;6378386;27;20725;-53
2022/10/27 03:11:28;;;;;;;8.07;7.43;;;11.40;1.00;;;;;;6387316;27;20230;-53
2022/10/27 03:14:30;;;;;;;7.03;6.63;;;11.40;1.00;;;;;;6388548;27;20233;-55
2022/10/27 03:17:33;;;;;;;6.97;6.57;;;11.40;1.00;;;;;;6388149;27;20235;-53
2022/10/27 03:20:37;;;;;;;8.20;7.40;;;11.40;1.00;;;;;;6375609;27;20236;-54
2022/10/27 03:23:41;;;;;;;7.57;6.87;;;11.30;1.00;;;;;;6383580;27;20539;-53
2022/10/27 03:26:43;;;;;;;8.77;8.20;;;11.30;1.00;;;;;;6387848;27;20231;-53
2022/10/27 03:29:46;;;;;;;8.13;7.63;;;11.30;1.00;;;;;;6380843;27;20231;-54
2022/10/27 03:32:51;;;;;;;8.20;7.60;;;11.30;1.00;;;;;;6356395;27;20750;-55
2022/10/27 03:35:56;;;;;;;8.43;7.83;;;11.30;1.00;;;;;;6382447;27;20241;-53
2022/10/27 03:39:00;;;;;;;8.97;8.27;;;11.30;1.00;;;;;;6383504;27;20230;-55
2022/10/27 03:42:03;;;;;;;8.87;8.17;;;11.20;1.00;;;;;;6385617;27;20234;-53
2022/10/27 03:45:06;;;;;;;8.27;7.70;;;11.20;1.00;;;;;;6387311;27;20735;-52
2022/10/27 03:48:12;;;;;;;8.20;7.63;;;11.20;1.00;;;;;;6386852;27;20503;-53
2022/10/27 03:51:17;;;;;;;7.83;7.23;;;11.20;1.00;;;;;;6381511;27;20231;-57
2022/10/27 03:54:20;;;;;;;7.97;7.47;;;11.20;1.00;;;;;;6386730;27;20222;-54
2022/10/27 03:57:23;;;;;;;7.20;6.90;;;11.20;1.00;;;;;;6383347;27;20227;-54
2022/10/27 04:00:27;;;;;;;8.00;7.50;;;11.20;1.00;;;;;;6377895;27;20226;-53
2022/10/27 04:03:30;;;;;;;9.90;7.93;;;11.20;1.00;;;;;;6383681;27;20621;-52
2022/10/27 04:06:35;;;;;;;8.40;7.70;;;11.20;1.00;;;;;;6380859;27;20234;-53
2022/10/27 04:09:37;;;;;;;8.10;7.50;;;11.10;1.00;;;;;;6383240;27;20236;-53
2022/10/27 04:12:48;;;;;;;8.07;7.47;;;11.20;1.00;;;;;;6388270;27;20261;-55
2022/10/27 04:15:51;;;;;;;7.80;7.40;;;11.10;1.00;;;;;;6381020;27;20598;-54
2022/10/27 04:18:54;;;;;;;9.67;9.07;;;11.20;1.00;;;;;;6385093;27;20238;-53
2022/10/27 04:21:59;;;;;;;7.93;7.43;;;11.20;1.00;;;;;;6386006;27;20238;-53
2022/10/27 04:25:01;;;;;;;8.40;7.83;;;11.20;1.00;;;;;;6379995;27;20230;-50
2022/10/27 04:28:06;;;;;;;8.63;7.93;;;11.20;1.00;;;;;;6385381;27;20226;-53
2022/10/27 04:31:11;;;;;;;8.37;7.77;;;11.20;1.00;;;;;;6379502;27;20377;-53
2022/10/27 04:34:13;;;;;;;7.83;7.37;;;11.20;1.00;;;;;;6383247;27;20238;-55
2022/10/27 04:37:18;;;;;;;8.63;8.13;;;11.20;1.00;;;;;;6385437;27;20236;-55
2022/10/27 04:40:20;;;;;;;9.97;9.07;;;11.10;1.00;;;;;;6378057;27;20395;-54
2022/10/27 04:43:42;;;;;;;9.23;8.53;;;11.10;1.00;;;;;;6377434;27;20230;-53
2022/10/27 04:46:45;;;;;;;8.17;7.73;;;11.10;1.00;;;;;;6386590;27;20223;-53
2022/10/27 04:49:47;;;;;;;9.10;8.47;;;11.10;1.00;;;;;;6373029;27;20231;-53
2022/10/27 04:52:59;;;;;;;8.20;7.67;;;11.10;1.00;;;;;;6353232;27;20708;-50
2022/10/27 04:56:02;;;;;;;8.97;8.37;;;11.10;1.00;;;;;;6383144;27;20250;-54
2022/10/27 04:59:04;;;;;;;9.13;8.50;;;11.00;1.00;;;;;;6380572;27;20290;-53
2022/10/27 05:02:07;;;;;;;9.20;8.60;;;11.00;1.00;;;;;;6380353;27;20245;-54
2022/10/27 05:05:10;;;;;;;9.67;8.83;;;11.00;1.00;;;;;;6384701;27;20230;-54
2022/10/27 05:08:15;;;;;;;8.87;8.27;;;11.10;1.00;;;;;;6381907;27;20626;-54
2022/10/27 05:11:18;;;;;;;9.13;8.53;;;11.10;1.00;;;;;;6384185;27;20234;-54
2022/10/27 05:14:20;;;;;;;8.40;7.80;;;11.10;1.00;;;;;;6377777;27;20255;-53
2022/10/27 05:17:24;;;;;;;9.00;8.30;;;11.10;1.00;;;;;;6385224;27;20226;-53
2022/10/27 05:20:26;;;;;;;9.73;8.10;;;11.10;1.00;;;;;;6384795;27;20234;-56
2022/10/27 05:23:31;;;;;;;8.10;7.60;;;11.10;1.00;;;;;;6385742;27;20238;-53
2022/10/27 05:26:33;;;;;;;12.27;11.07;;;11.10;1.00;;;;;;6385228;27;20238;-54
2022/10/27 05:29:39;;;;;;;10.50;9.47;;;11.00;1.00;;;;;;6386760;27;20721;-54
2022/10/27 05:32:42;;;;;;;10.60;9.40;;;11.10;1.00;;;;;;6383450;27;20238;-53
2022/10/27 05:35:49;;;;;;;9.27;8.57;;;11.10;1.00;;;;;;6389986;27;20434;-54
2022/10/27 05:38:53;;;;;;;8.63;8.13;;;11.10;1.00;;;;;;6388933;27;20425;-54
2022/10/27 05:41:56;;;;;;;9.63;8.93;;;11.10;1.00;;;;;;6389458;27;20231;-51
2022/10/27 05:44:59;;;;;;;9.83;8.97;;;11.10;1.00;;;;;;6390007;27;20239;-53
2022/10/27 05:48:04;;;;;;;9.67;8.87;;;11.10;1.00;;;;;;6388959;27;20230;-57
2022/10/27 05:51:07;;;;;;;8.57;7.97;;;11.10;1.00;;;;;;6390352;27;20265;-54
2022/10/27 05:54:11;;;;;;;8.77;8.17;;;11.00;1.00;;;;;;6389413;27;20234;-53
2022/10/27 05:57:15;;;;;;;8.00;7.60;;;11.00;1.00;;;;;;6386157;27;20396;-54
2022/10/27 06:00:18;;;;;;;9.70;8.93;;;11.00;1.00;;;;;;6389088;27;20230;-53
2022/10/27 06:03:25;;;;;;;10.17;9.27;;;11.00;1.00;;;;;;6382190;27;20241;-55
2022/10/27 06:06:28;;;;;;;9.57;8.77;;;11.00;1.00;;;;;;6386702;27;20828;-54
2022/10/27 06:09:34;;;;;;;10.53;9.63;;;11.00;1.00;;;;;;6389737;27;20749;-53
2022/10/27 06:12:37;;;;;;;9.90;9.00;;;11.00;1.00;;;;;;6389516;27;20238;-52
2022/10/27 06:15:40;;;;;;;9.10;8.50;;;11.10;1.00;;;;;;6385233;27;20230;-52
2022/10/27 06:18:43;;;;;;;11.90;10.40;;;11.10;1.00;;;;;;6384325;27;20700;-53
2022/10/27 06:21:46;;;;;;;11.10;10.20;;;11.10;1.00;;;;;;6388768;27;20238;-53
2022/10/27 06:24:50;;;;;;;15.60;11.40;;;11.20;1.00;;;;;;6383662;27;20235;-53
2022/10/27 06:27:53;;;;;;;11.70;10.60;;;11.20;1.00;;;;;;6388575;27;20239;-53
2022/10/27 06:30:57;;;;;;;9.63;8.93;;;11.20;1.00;;;;;;6386472;27;20357;-54
2022/10/27 06:34:00;;;;;;;11.73;10.60;;;11.20;1.00;;;;;;6383235;27;20230;-53
2022/10/27 06:37:04;;;;;;;10.13;9.33;;;11.30;1.00;;;;;;6382936;27;20227;-54
2022/10/27 06:40:22;;;;;;;9.57;8.77;;;11.30;1.00;;;;;;6387812;27;20729;-54
2022/10/27 06:43:26;;;;;;;10.83;9.93;;;11.40;1.00;;;;;;6388523;27;20231;-54
2022/10/27 06:46:38;;;;;;;11.00;10.00;;;11.40;1.00;;;;;;6388118;27;20231;-54
2022/10/27 06:49:41;;;;;;;12.10;9.67;;;11.40;1.00;;;;;;6358489;27;20231;-54
2022/10/27 06:52:44;;;;;;;15.33;11.67;;;11.50;1.00;;;;;;6386354;27;20484;-54
2022/10/27 06:55:48;;;;;;;12.53;10.57;;;11.50;1.00;;;;;;6388947;27;20223;-54
2022/10/27 06:58:51;;;;;;;10.33;9.63;;;11.60;1.00;;;;;;6382404;27;20290;-54
2022/10/27 07:01:56;;;;;;;10.77;9.87;;;11.60;1.00;;;;;;6382507;27;20493;-56
2022/10/27 07:04:59;;;;;;;11.73;10.53;;;11.70;1.00;;;;;;6387441;27;20453;-54
2022/10/27 07:08:02;;;;;;;16.73;11.33;;;11.70;1.00;;;;;;6387051;27;20754;-53
2022/10/27 07:11:08;;;;;;;12.10;10.97;;;11.80;1.00;;;;;;6386382;27;20750;-54
2022/10/27 07:14:11;;;;;;;12.17;11.07;;;11.90;1.00;;;;;;6386264;27;20235;-54
2022/10/27 07:17:14;;;;;;;12.30;10.97;;;12.00;1.00;;;;;;6379390;27;20358;-60
2022/10/27 07:20:17;;;;;;;11.17;10.30;;;12.10;1.00;;;;;;6387367;27;20233;-54
2022/10/27 07:23:20;;;;;;;10.57;9.70;;;12.10;1.00;;;;;;6387632;27;20242;-53
2022/10/27 07:26:24;;;;;;;10.07;9.30;;;12.20;1.00;;;;;;6387772;27;20234;-55
2022/10/27 07:29:28;;;;;;;12.13;10.80;;;12.40;1.00;;;;;;6380989;27;20233;-54
2022/10/27 07:32:31;;;;;;;12.13;10.97;;;12.40;1.00;;;;;;6380180;27;20417;-54
2022/10/27 07:35:37;;;;;;;11.37;10.20;;;12.50;1.00;;;;;;6386401;27;20231;-53
2022/10/27 07:38:41;;;;;;;13.00;10.27;;;12.70;1.00;;;;;;6386673;27;20239;-56
2022/10/27 07:41:45;;;;;;;13.97;11.93;;;12.80;1.00;;;;;;6386999;27;20499;-55
2022/10/27 07:44:48;;;;;;;16.73;12.10;;;12.90;1.00;;;;;;6384961;27;20219;-55
2022/10/27 07:47:52;;;;;;;11.53;10.37;;;13.10;1.00;;;;;;6386806;27;20230;-57
2022/10/27 07:50:55;;;;;;;13.20;10.07;;;13.10;1.00;;;;;;6387159;27;20230;-54
2022/10/27 07:53:58;;;;;;;10.57;9.60;;;13.30;1.00;;;;;;6384752;27;20249;-53
2022/10/27 07:57:08;;;;;;;11.20;9.97;;;13.40;1.00;;;;;;6383478;27;20257;-55
2022/10/27 08:00:13;;;;;;;10.27;9.37;;;13.60;1.00;;;;;;6386906;27;20234;-54
2022/10/27 08:03:17;;;;;;;13.10;11.90;;;13.70;1.00;;;;;;6384403;27;20907;-54
2022/10/27 08:06:24;;;;;;;10.57;9.57;;;13.90;1.00;;;;;;6388119;27;20606;-54
2022/10/27 08:09:26;;;;;;;8.90;8.10;;;14.00;1.00;;;;;;6386719;27;20325;-55
2022/10/27 08:12:31;;;;;;;10.93;9.43;;;14.20;1.00;;;;;;6378522;27;20239;-54
2022/10/27 08:15:38;;;;;;;8.83;8.03;;;14.30;1.00;;;;;;6379244;27;20715;-54
2022/10/27 08:18:41;;;;;;;10.77;9.10;;;14.40;1.00;;;;;;6383837;27;20230;-54
2022/10/27 08:21:44;;;;;;;10.33;8.97;;;14.50;1.00;;;;;;6386406;27;20231;-53
2022/10/27 08:24:47;;;;;;;12.63;8.97;;;14.50;1.00;;;;;;6385297;27;20229;-54
2022/10/27 08:27:51;;;;;;;9.73;8.80;;;14.60;1.00;;;;;;6385185;27;20241;-53
2022/10/27 08:30:58;;;;;;;9.97;9.07;;;14.70;1.00;;;;;;6384734;27;20245;-54
2022/10/27 08:34:01;;;;;;;8.30;7.73;;;14.80;1.00;;;;;;6383687;27;20245;-53
2022/10/27 08:37:05;;;;;;;11.37;9.23;;;14.80;1.00;;;;;;6382219;27;20254;-54
2022/10/27 08:40:10;;;;;;;10.10;9.27;;;14.80;1.00;;;;;;6385908;27;20261;-54
2022/10/27 08:43:34;;;;;;;12.90;8.73;;;15.00;1.00;;;;;;6385640;27;20238;-55
2022/10/27 08:46:42;;;;;;;15.03;9.13;;;15.00;1.00;;;;;;6385460;27;20234;-54
2022/10/27 08:49:50;;;;;;;10.00;8.60;;;15.10;1.00;;;;;;6384435;27;20226;-54
2022/10/27 08:52:58;;;;;;;11.03;7.83;;;15.10;1.00;;;;;;6385772;27;20371;-54
2022/10/27 08:56:10;;;;;;;8.90;8.20;;;15.20;1.00;;;;;;6383686;27;20230;-53
2022/10/27 08:59:22;;;;;;;12.53;8.53;;;15.30;1.00;;;;;;6385745;27;20545;-54
2022/10/27 09:02:49;;;;;;;11.40;8.37;;;15.50;1.00;;;;;;6377784;27;20589;-54
2022/10/27 09:06:01;;;;;;;8.63;7.83;;;15.60;1.00;;;;;;6384071;27;20628;-54
2022/10/27 09:09:13;;;;;;;11.10;8.37;;;15.70;1.00;;;;;;6388336;27;20223;-56
2022/10/27 09:12:29;;;;;;;8.80;7.90;;;15.80;1.00;;;;;;6390827;27;20610;-54
2022/10/27 09:15:43;;;;;;;8.53;7.87;;;15.90;1.00;;;;;;6388346;27;20227;-55
2022/10/27 09:18:49;;;;;;;11.10;7.77;;;16.10;1.00;;;;;;6390808;27;20417;-57
2022/10/27 09:21:53;;;;;;;7.50;6.80;;;16.20;1.00;;;;;;6390501;27;20242;-54
2022/10/27 09:25:01;;;;;;;9.23;7.30;;;16.40;1.00;;;;;;6387301;27;20257;-54
2022/10/27 09:28:05;;;;;;;7.20;6.60;;;16.50;1.00;;;;;;6390204;27;20472;-53
2022/10/27 09:31:15;;;;;;;7.33;6.60;;;16.60;1.00;;;;;;6387221;27;20227;-53
2022/10/27 09:34:22;;;;;;;7.70;6.93;;;16.80;1.00;;;;;;6384842;27;20246;-54
2022/10/27 09:37:28;;;;;;;6.73;6.13;;;16.90;1.00;;;;;;6381941;27;20227;-54
2022/10/27 09:40:33;;;;;;;7.90;7.30;;;17.10;1.00;;;;;;6390047;27;20231;-61
2022/10/27 09:43:39;;;;;;;7.83;7.13;;;17.10;1.00;;;;;;6389601;27;20599;-54
2022/10/27 09:46:45;;;;;;;10.27;7.13;;;17.10;1.00;;;;;;6389766;27;20223;-54
2022/10/27 09:49:48;;;;;;;9.20;7.37;;;17.20;1.00;;;;;;6382600;27;20247;-53
2022/10/27 09:52:52;;;;;;;7.47;6.73;;;17.30;1.00;;;;;;6388111;27;20243;-60
2022/10/27 09:55:55;;;;;;;7.03;6.50;;;17.30;1.00;;;;;;6389473;27;20242;-54
2022/10/27 09:59:01;;;;;;;7.30;6.67;;;17.40;1.00;;;;;;6381569;27;20230;-54
2022/10/27 10:02:22;;;;;;;7.13;6.43;;;17.50;1.00;;;;;;6388799;27;20239;-54
2022/10/27 10:05:27;;;;;;;6.80;6.30;;;17.60;1.00;;;;;;6388517;27;20783;-57
2022/10/27 10:08:32;;;;;;;6.20;5.70;;;17.70;1.00;;;;;;6376987;27;20605;-54
2022/10/27 10:11:35;;;;;;;11.77;7.17;;;17.90;1.00;;;;;;6389468;27;20469;-53
2022/10/27 10:14:38;;;;;;;7.27;6.43;;;18.00;1.00;;;;;;6387888;27;20476;-54
2022/10/27 10:17:50;;;;;;;7.13;6.60;;;18.20;1.00;;;;;;6387277;27;20595;-54
2022/10/27 10:20:58;;;;;;;7.23;6.60;;;18.40;1.00;;;;;;6384202;27;20520;-54
2022/10/27 10:24:01;;;;;;;7.50;6.23;;;18.50;1.00;;;;;;6389212;27;20235;-54
2022/10/27 10:27:06;;;;;;;7.03;6.23;;;18.60;1.00;;;;;;6388780;27;20788;-55
2022/10/27 10:30:19;;;;;;;5.33;4.97;;;18.70;1.00;;;;;;6388220;27;20238;-53
2022/10/27 10:33:28;;;;;;;7.30;6.67;;;18.80;1.00;;;;;;6387965;27;20230;-54
2022/10/27 10:36:35;;;;;;;10.00;7.50;;;18.90;1.00;;;;;;6379402;27;20235;-54
2022/10/27 10:39:38;;;;;;;6.50;6.00;;;19.00;1.00;;;;;;6388871;27;20414;-56
2022/10/27 10:42:44;;;;;;;7.10;6.50;;;19.10;1.00;;;;;;6389101;27;20457;-54
2022/10/27 10:45:52;;;;;;;6.87;6.27;;;19.20;1.00;;;;;;6388712;27;20598;-53
2022/10/27 10:48:58;;;;;;;5.97;5.50;;;19.20;1.00;;;;;;6385476;27;20235;-55
2022/10/27 10:52:05;;;;;;;7.20;6.50;;;19.10;1.00;;;;;;6388437;27;20719;-53
2022/10/27 10:55:19;;;;;;;12.03;6.70;;;19.20;1.00;;;;;;6386815;27;20838;-54
2022/10/27 10:58:25;;;;;;;8.33;6.87;;;19.30;1.00;;;;;;6381813;27;20234;-55
2022/10/27 11:01:40;;;;;;;7.00;5.67;;;19.50;1.00;;;;;;6380725;27;20630;-54
2022/10/27 11:04:46;;;;;;;7.77;6.90;;;19.60;1.00;;;;;;6382827;27;20238;-53
2022/10/27 11:07:51;;;;;;;11.70;5.93;;;19.80;1.00;;;;;;6387409;27;20635;-53
2022/10/27 11:10:57;;;;;;;9.17;6.37;;;19.90;1.00;;;;;;6388500;27;20227;-53
2022/10/27 11:14:06;;;;;;;6.90;5.37;;;19.80;1.00;;;;;;6385718;27;20223;-54
2022/10/27 11:17:09;;;;;;;5.93;5.17;;;19.90;1.00;;;;;;6387224;27;20245;-54
2022/10/27 11:20:20;;;;;;;6.93;5.20;;;20.00;1.00;;;;;;6387350;27;20230;-55
2022/10/27 11:23:28;;;;;;;5.93;4.70;;;20.10;1.00;;;;;;6378807;27;20734;-54
2022/10/27 11:26:35;;;;;;;6.87;4.57;;;20.00;1.00;;;;;;6379907;27;20234;-56
2022/10/27 11:29:43;;;;;;;6.90;4.43;;;20.00;1.00;;;;;;6387899;27;20230;-54
2022/10/27 11:32:57;;;;;;;4.93;4.33;;;19.90;1.00;;;;;;6377134;27;20238;-54
2022/10/27 11:36:09;;;;;;;6.13;4.63;;;20.00;1.00;;;;;;6384458;27;20241;-54
2022/10/27 11:39:18;;;;;;;7.43;4.80;;;20.10;1.00;;;;;;6386937;27;20353;-55
2022/10/27 11:42:34;;;;;;;4.73;4.33;;;20.10;1.00;;;;;;6377857;27;20309;-55
2022/10/27 11:45:43;;;;;;;4.93;4.20;;;20.20;1.00;;;;;;6382338;27;20226;-55
2022/10/27 11:48:53;;;;;;;4.97;4.63;;;20.30;1.00;;;;;;6385916;27;20234;-54
2022/10/27 11:52:03;;;;;;;5.67;5.07;;;20.20;1.00;;;;;;6386004;27;20234;-54
2022/10/27 11:55:09;;;;;;;5.13;4.57;;;20.00;1.00;;;;;;6383457;27;20231;-54
2022/10/27 11:58:23;;;;;;;4.40;4.00;;;20.10;1.00;;;;;;6380125;27;20234;-54
2022/10/27 12:01:39;;;;;;;4.50;4.10;;;20.20;1.00;;;;;;6382343;27;20230;-57
2022/10/27 12:04:53;;;;;;;7.73;4.37;;;20.30;1.00;;;;;;6380390;27;20386;-54
2022/10/27 12:08:07;;;;;;;5.17;4.03;;;20.30;1.00;;;;;;6384654;27;20238;-53
2022/10/27 12:11:26;;;;;;;4.30;4.00;;;20.10;1.00;;;;;;6381414;27;20220;-54
2022/10/27 12:14:34;;;;;;;5.10;3.80;;;20.20;1.00;;;;;;6379903;27;20684;-54
2022/10/27 12:17:43;;;;;;;7.03;4.63;;;20.40;1.00;;;;;;6385435;27;20222;-53
2022/10/27 12:20:55;;;;;;;8.40;5.20;;;20.40;1.00;;;;;;6379494;27;20731;-54
2022/10/27 12:24:04;;;;;;;7.50;5.30;;;20.50;1.00;;;;;;6382181;27;20488;-54
2022/10/27 12:27:15;;;;;;;5.97;5.43;;;20.50;1.00;;;;;;6385059;27;20486;-56
2022/10/27 12:30:26;;;;;;;5.43;4.60;;;20.70;1.00;;;;;;6384160;27;20223;-54
2022/10/27 12:33:33;;;;;;;4.77;4.33;;;20.70;1.00;;;;;;6382530;27;20613;-54
2022/10/27 12:36:44;;;;;;;6.10;5.70;;;20.80;1.00;;;;;;6378165;27;20379;-56
2022/10/27 12:39:57;;;;;;;5.70;4.63;;;20.90;1.00;;;;;;6379049;27;20538;-54
2022/10/27 12:43:18;;;;;;;4.83;4.43;;;20.90;1.00;;;;;;6385442;27;20511;-54
2022/10/27 12:46:47;;;;;;;4.30;4.10;;;20.80;1.00;;;;;;6374046;27;20230;-53
2022/10/27 12:50:01;;;;;;;4.27;3.90;;;20.80;1.00;;;;;;6375322;27;20246;-55
2022/10/27 12:53:25;;;;;;;4.17;3.73;;;20.90;1.00;;;;;;6375999;27;20245;-53
2022/10/27 12:56:41;;;;;;;4.53;4.20;;;20.80;1.00;;;;;;6384501;27;20419;-57
2022/10/27 12:59:53;;;;;;;5.87;4.00;;;20.70;1.00;;;;;;6384936;27;20245;-53
2022/10/27 13:03:36;;;;;;;6.20;3.80;;;20.50;1.00;;;;;;6378604;27;20753;-54
2022/10/27 13:06:54;;;;;;;4.60;4.20;;;20.50;1.00;;;;;;6384666;27;20222;-54
2022/10/27 13:10:26;;;;;;;6.73;4.43;;;20.50;1.00;;;;;;6382740;27;20234;-54
2022/10/27 13:13:48;;;;;;;5.37;3.87;;;20.40;1.00;;;;;;6382614;27;20250;-54
2022/10/27 13:17:07;;;;;;;4.83;4.30;;;20.30;1.00;;;;;;6383895;27;20894;-54
2022/10/27 13:20:22;;;;;;;5.53;4.50;;;20.40;1.00;;;;;;6383966;27;20230;-53
2022/10/27 13:23:31;;;;;;;4.40;3.70;;;20.40;1.00;;;;;;6379663;27;20245;-54
2022/10/27 13:26:42;;;;;;;4.37;4.07;;;20.50;1.00;;;;;;6384864;27;20234;-54
2022/10/27 13:29:53;;;;;;;6.57;3.67;;;20.50;1.00;;;;;;6382522;27;20540;-53
2022/10/27 13:32:57;;;;;;;4.17;3.57;;;20.50;1.00;;;;;;6378022;27;20234;-56
2022/10/27 13:36:17;;;;;;;3.70;3.20;;;20.60;1.00;;;;;;6387113;27;20234;-53
2022/10/27 13:39:41;;;;;;;4.57;3.70;;;20.50;1.00;;;;;;6386199;27;20254;-56
2022/10/27 13:42:44;;;;;;;3.57;3.37;;;20.50;1.00;;;;;;6385183;27;20703;-54
2022/10/27 13:45:50;;;;;;;8.60;4.27;;;20.50;1.00;;;;;;6384800;27;20384;-54
2022/10/27 13:48:53;;;;;;;4.27;3.87;;;20.50;1.00;;;;;;6383410;27;20241;-55
2022/10/27 13:52:11;;;;;;;3.47;3.20;;;20.60;1.00;;;;;;6390711;27;20714;-60
2022/10/27 13:55:34;;;;;;;4.00;3.20;;;20.60;1.00;;;;;;6389848;27;20223;-55
2022/10/27 13:58:54;;;;;;;3.77;3.57;;;20.70;1.00;;;;;;6381566;27;20238;-54
2022/10/27 14:02:02;;;;;;;4.23;3.60;;;20.60;1.00;;;;;;6389684;27;20242;-54
2022/10/27 14:05:28;;;;;;;3.00;2.80;;;20.60;1.00;;;;;;6389254;27;20845;-54
2022/10/27 14:08:33;;;;;;;3.50;3.30;;;20.60;1.00;;;;;;6381660;27;20237;-53
2022/10/27 14:11:36;;;;;;;3.33;3.17;;;20.50;1.00;;;;;;6390366;27;20239;-55
2022/10/27 14:14:40;;;;;;;4.20;3.90;;;20.40;1.00;;;;;;6389418;27;20226;-54
2022/10/27 14:17:47;;;;;;;3.47;3.23;;;20.30;1.00;;;;;;6388195;27;20238;-56
2022/10/27 14:20:52;;;;;;;4.67;3.63;;;20.30;1.00;;;;;;6388688;27;20615;-55
2022/10/27 14:24:01;;;;;;;5.90;3.93;;;20.20;1.00;;;;;;6388813;27;20231;-54
2022/10/27 14:27:06;;;;;;;3.73;3.53;;;20.10;1.00;;;;;;6388625;27;20222;-53
2022/10/27 14:30:16;;;;;;;5.33;3.50;;;20.10;1.00;;;;;;6387843;27;20245;-60
2022/10/27 14:33:24;;;;;;;3.80;3.60;;;20.00;1.00;;;;;;6380700;27;20242;-54
2022/10/27 14:36:30;;;;;;;3.93;3.30;;;19.90;1.00;;;;;;6370112;27;20246;-60
2022/10/27 14:39:36;;;;;;;3.47;3.37;;;19.80;1.00;;;;;;6388925;27;20226;-55
2022/10/27 14:42:40;;;;;;;4.30;3.60;;;19.70;1.00;;;;;;6388668;27;20224;-54
2022/10/27 14:45:45;;;;;;;3.30;3.10;;;19.70;1.00;;;;;;6384591;27;20758;-54
2022/10/27 14:48:57;;;;;;;6.27;3.63;;;19.60;1.00;;;;;;6388145;27;20226;-55
2022/10/27 14:52:04;;;;;;;3.83;3.63;;;19.50;1.00;;;;;;6388628;27;20226;-55
2022/10/27 14:55:17;;;;;;;4.83;3.57;;;19.50;1.00;;;;;;6387951;27;20251;-54
2022/10/27 14:58:27;;;;;;;3.90;3.60;;;19.40;1.00;;;;;;6377919;27;20236;-54
2022/10/27 15:01:32;;;;;;;4.50;4.10;;;19.40;1.00;;;;;;6374788;27;20793;-55
2022/10/27 15:04:39;;;;;;;4.60;4.30;;;19.30;1.00;;;;;;6384610;27;20706;-55
2022/10/27 15:07:45;;;;;;;4.53;4.23;;;19.10;1.00;;;;;;6383239;27;20722;-55
2022/10/27 15:10:54;;;;;;;4.37;4.17;;;19.10;1.00;;;;;;6387823;27;20241;-54
2022/10/27 15:13:58;;;;;;;4.07;3.87;;;19.10;1.00;;;;;;6387752;27;20249;-54
2022/10/27 15:17:01;;;;;;;4.53;4.13;;;19.00;1.00;;;;;;6385670;27;20238;-54
2022/10/27 15:20:07;;;;;;;3.87;3.70;;;18.90;1.00;;;;;;6384988;27;20223;-54
2022/10/27 15:23:15;;;;;;;6.00;3.83;;;18.80;1.00;;;;;;6386807;27;20242;-54
2022/10/27 15:26:24;;;;;;;6.37;4.57;;;18.70;1.00;;;;;;6385923;27;20226;-55
2022/10/27 15:29:27;;;;;;;5.93;4.57;;;18.60;1.00;;;;;;6380302;27;20234;-55
2022/10/27 15:32:37;;;;;;;4.60;4.03;;;18.50;1.00;;;;;;6371495;27;20242;-58
2022/10/27 15:35:43;;;;;;;4.50;4.13;;;18.40;1.00;;;;;;6386155;27;20234;-54
2022/10/27 15:38:49;;;;;;;4.93;4.30;;;18.40;1.00;;;;;;6386718;27;20261;-55
2022/10/27 15:41:52;;;;;;;6.63;4.17;;;18.30;1.00;;;;;;6386102;27;20223;-54
2022/10/27 15:45:34;;;;;;;5.07;4.40;;;18.20;1.00;;;;;;6380376;27;20706;-53
2022/10/27 15:48:38;;;;;;;5.20;4.70;;;18.10;1.00;;;;;;6379320;27;20218;-54
2022/10/27 15:51:49;;;;;;;4.70;4.33;;;18.00;1.00;;;;;;6386677;27;20462;-54
2022/10/27 15:54:53;;;;;;;5.63;4.67;;;17.80;1.00;;;;;;6373583;27;20839;-54
2022/10/27 15:57:58;;;;;;;7.60;6.80;;;17.70;1.00;;;;;;6379542;27;20241;-53
2022/10/27 16:01:03;;;;;;;10.03;8.27;;;17.60;1.00;;;;;;6385966;27;20226;-55
2022/10/27 16:04:06;;;;;;;9.67;8.53;;;17.50;1.00;;;;;;6383469;27;20628;-58
2022/10/27 16:07:30;;;;;;;9.53;8.47;;;17.40;1.00;;;;;;6384626;27;20329;-54
2022/10/27 16:10:32;;;;;;;10.53;9.40;;;17.30;1.00;;;;;;6363898;27;20598;-54
2022/10/27 16:13:35;;;;;;;11.00;9.90;;;17.20;1.00;;;;;;6377566;27;20265;-54
2022/10/27 16:16:38;;;;;;;9.60;8.63;;;17.10;1.00;;;;;;6385635;27;20234;-54
2022/10/27 16:19:42;;;;;;;11.70;9.57;;;17.00;1.00;;;;;;6384225;27;20242;-54
2022/10/27 16:22:46;;;;;;;10.90;9.87;;;17.00;1.00;;;;;;6386232;27;20483;-58